Vilnius International Airport

EYVI · Vilnius, Lithuania

METAR history EYVI · Vilnius International Airport

Below you see METARs of the last few days. Select a year to browse through older METARs, from the year 2007 onwards.

April 13, 2024

Time Code Weather Temp. Visibility Ceiling Wind METAR/SPECI
10:20
M
11 °C 10 km+ 1,100 ft 280° 280° 10 kt METAR EYVI 130720Z 28010KT 9999 OVC011 11/09 Q1016 NOSIG
09:50
M
11 °C 10 km+ 1,100 ft 270° 270° 15 kt METAR EYVI 130650Z 27015KT 9999 BKN011 BKN049 11/09 Q1016 NOSIG
09:20
M
11 °C 10 km+ 1,000 ft 270° 270° 11 kt METAR EYVI 130620Z 27011KT 9999 BKN010 BKN045 11/09 Q1016 NOSIG
08:50
I
11 °C 10 km+ 800 ft 270° 270° 12 kt METAR EYVI 130550Z 27012KT 250V310 9999 OVC008 11/09 Q1016 NOSIG
08:20
L
11 °C 10 km+ 400 ft 260° 260° 12 kt METAR EYVI 130520Z 26012KT 9999 -RA BKN004 OVC045 11/10 Q1016 RESHRA NOSIG
07:50
L
10 °C 6 km 400 ft 250° 250° 11 kt METAR EYVI 130450Z 25011KT 6000 -RA OVC004 10/10 Q1016 NOSIG
07:20
L
10 °C 3.8 km 400 ft 220° 220° 9 kt METAR EYVI 130420Z 22009KT 3800 -RA BR OVC004 10/10 Q1016 NOSIG
06:50
L
10 °C 10 km+ 400 ft 210° 210° 8 kt METAR EYVI 130350Z 21008KT 9999 BKN004 BKN046 10/10 Q1016 NOSIG
06:20
L
10 °C 10 km+ 400 ft 210° 210° 8 kt METAR EYVI 130320Z 21008KT 9999 OVC004 10/09 Q1016 NOSIG
05:50
L
9 °C 10 km+ 400 ft 220° 220° 9 kt METAR EYVI 130250Z 22009KT 9999 OVC004 09/09 Q1017 NOSIG
05:20
I
9 °C 10 km+ 500 ft 210° 210° 9 kt METAR EYVI 130220Z 21009KT 9999 -RA BKN005 09/09 Q1017 NOSIG
04:50
M
9 °C 8 km 1,300 ft 210° 210° 8 kt METAR EYVI 130150Z 21008KT 8000 -RA OVC013 09/08 Q1017 NOSIG
04:20
V
8 °C 10 km+ 3,500 ft 190° 190° 8 kt METAR EYVI 130120Z 19008KT 9999 -RA BKN035 08/08 Q1018 NOSIG
03:50
V
8 °C 10 km+ - 190° 190° 7 kt METAR EYVI 130050Z 19007KT CAVOK 08/08 Q1018 NOSIG
03:20
V
8 °C 10 km+ 3,400 ft 190° 190° 6 kt METAR EYVI 130020Z 19006KT 9999 -RA BKN034 08/07 Q1018 NOSIG
02:50
V
9 °C 10 km+ 3,500 ft 190° 190° 4 kt METAR EYVI 122350Z 19004KT 9999 -RA OVC035 09/07 Q1019 NOSIG
02:20
M
9 °C 10 km+ 3,000 ft 170° 170° 3 kt METAR EYVI 122320Z 17003KT 9999 BKN030 09/06 Q1020 NOSIG
01:50
M
10 °C 10 km+ 3,000 ft 200° 200° 5 kt METAR EYVI 122250Z 20005KT 9999 BKN030 10/06 Q1020 NOSIG
01:20
V
10 °C 10 km+ 3,100 ft 230° 230° 5 kt METAR EYVI 122220Z 23005KT 210V270 9999 BKN031 10/06 Q1020 NOSIG
00:50
M
10 °C 10 km+ 2,900 ft 220° 220° 5 kt METAR EYVI 122150Z 22005KT 9999 BKN029 10/06 Q1021 NOSIG
00:20
M
11 °C 10 km+ 2,900 ft 240° 240° 4 kt METAR EYVI 122120Z 24004KT 210V290 9999 BKN029 11/06 Q1021 NOSIG

April 12, 2024

Time Code Weather Temp. Visibility Ceiling Wind METAR/SPECI
23:50
V
10 °C 10 km+ - 250° 250° 5 kt METAR EYVI 122050Z 25005KT 210V280 9999 FEW027 10/06 Q1021 NOSIG
23:20
V
11 °C 10 km+ - 250° 250° 5 kt METAR EYVI 122020Z 25005KT 230V290 CAVOK 11/06 Q1021 NOSIG
22:50
V
11 °C 10 km+ - 260° 260° 6 kt METAR EYVI 121950Z 26006KT 230V290 CAVOK 11/06 Q1021 NOSIG
22:20
V
11 °C 10 km+ - 270° 270° 6 kt METAR EYVI 121920Z 27006KT CAVOK 11/05 Q1022 NOSIG
21:50
V
11 °C 10 km+ - 270° 270° 7 kt METAR EYVI 121850Z 27007KT 230V310 CAVOK 11/05 Q1022 NOSIG
21:20
V
12 °C 10 km+ - 280° 280° 7 kt METAR EYVI 121820Z 28007KT 250V320 CAVOK 12/05 Q1022 NOSIG
20:50
V
12 °C 10 km+ - 270° 270° 6 kt METAR EYVI 121750Z 27006KT 220V310 CAVOK 12/04 Q1022 NOSIG
20:20
V
12 °C 10 km+ - 290° 290° 10 kt METAR EYVI 121720Z 29010KT CAVOK 12/04 Q1022 NOSIG
19:50
V
13 °C 10 km+ - 290° 290° 13 kt METAR EYVI 121650Z 29013KT 260V320 CAVOK 13/04 Q1022 NOSIG
19:20
V
13 °C 10 km+ - 280° 280° 14 kt METAR EYVI 121620Z 28014KT 260V320 CAVOK 13/03 Q1023 NOSIG
18:50
V
13 °C 10 km+ - 280° 280° 11 kt METAR EYVI 121550Z 28011KT CAVOK 13/04 Q1023 NOSIG
18:20
V
13 °C 10 km+ - 280° 280° 13 kt METAR EYVI 121520Z 28013KT CAVOK 13/03 Q1023 NOSIG
17:50
V
14 °C 10 km+ - 290° 290° 14 - 25 kt METAR EYVI 121450Z 29014G25KT 260V320 9999 SCT039 14/04 Q1023 NOSIG
17:20
V
14 °C 10 km+ 3,900 ft 270° 270° 14 kt METAR EYVI 121420Z 27014KT 9999 BKN039 14/04 Q1023 NOSIG
16:50
V
14 °C 10 km+ 3,700 ft 290° 290° 14 kt METAR EYVI 121350Z 29014KT 9999 BKN037 14/05 Q1023 NOSIG
16:20
V
15 °C 10 km+ 3,600 ft 280° 280° 15 - 25 kt METAR EYVI 121320Z 28015G25KT 9999 BKN036 15/05 Q1024 NOSIG
15:50
V
15 °C 10 km+ 3,800 ft 280° 280° 13 kt METAR EYVI 121250Z 28013KT 240V310 9999 BKN038 15/05 Q1024 NOSIG
15:20
V
15 °C 10 km+ 3,400 ft 270° 270° 18 kt METAR EYVI 121220Z 27018KT 9999 BKN034 15/05 Q1024 NOSIG
14:50
V
14 °C 10 km+ 3,300 ft 270° 270° 15 kt METAR EYVI 121150Z 27015KT 230V300 9999 BKN033 14/05 Q1024 NOSIG
14:20
M
14 °C 10 km+ 2,900 ft 290° 290° 13 kt METAR EYVI 121120Z 29013KT 260V320 9999 BKN029 14/06 Q1024 NOSIG
13:50
M
14 °C 10 km+ 2,500 ft 300° 300° 15 kt METAR EYVI 121050Z 30015KT 9999 BKN025 14/07 Q1024 NOSIG
13:20
M
14 °C 10 km+ 2,400 ft 290° 290° 14 kt METAR EYVI 121020Z 29014KT 260V320 9999 BKN024 14/07 Q1024 NOSIG
12:50
M
13 °C 10 km+ 2,100 ft 280° 280° 14 kt METAR EYVI 120950Z 28014KT 9999 BKN021 13/07 Q1024 NOSIG
12:20
M
13 °C 10 km+ 1,900 ft 280° 280° 14 kt METAR EYVI 120920Z 28014KT 9999 BKN019 13/08 Q1024 NOSIG
11:50
M
13 °C 10 km+ 1,400 ft 270° 270° 15 kt METAR EYVI 120850Z 27015KT 240V300 9999 BKN014 13/08 Q1024 NOSIG
11:20
M
12 °C 10 km+ 1,200 ft 260° 260° 13 kt METAR EYVI 120820Z 26013KT 9999 BKN012 BKN035 12/09 Q1024 NOSIG
10:50
M
12 °C 10 km+ 1,000 ft 260° 260° 10 kt METAR EYVI 120750Z 26010KT 230V300 9999 BKN010 BKN029 12/09 Q1024 NOSIG
10:20
M
11 °C 10 km+ 1,100 ft 280° 280° 10 kt METAR EYVI 120720Z 28010KT 9999 -RA OVC011 11/09 Q1024 NOSIG
09:50
M
11 °C 10 km+ 1,400 ft 280° 280° 11 kt METAR EYVI 120650Z 28011KT 250V320 9999 OVC014 11/08 Q1024 NOSIG
09:20
M
11 °C 10 km+ 1,400 ft 270° 270° 12 kt METAR EYVI 120620Z 27012KT 9999 OVC014 11/08 Q1024 NOSIG
08:50
M
11 °C 10 km+ 1,200 ft 270° 270° 13 kt METAR EYVI 120550Z 27013KT 9999 OVC012 11/08 Q1024 NOSIG
08:20
M
11 °C 10 km+ 1,100 ft 270° 270° 12 kt METAR EYVI 120520Z 27012KT 9999 OVC011 11/08 Q1024 NOSIG
07:50
M
10 °C 10 km+ 1,100 ft 270° 270° 11 kt METAR EYVI 120450Z 27011KT 9999 OVC011 10/08 Q1024 NOSIG
07:20
M
10 °C 10 km+ 1,100 ft 270° 270° 10 kt METAR EYVI 120420Z 27010KT 9999 OVC011 10/08 Q1024 NOSIG
06:50
M
10 °C 10 km+ 1,200 ft 270° 270° 9 kt METAR EYVI 120350Z 27009KT 9999 OVC012 10/08 Q1024 NOSIG
06:20
M
10 °C 10 km+ 1,200 ft 280° 280° 9 kt METAR EYVI 120320Z 28009KT 9999 OVC012 10/08 Q1024 NOSIG
05:50
M
10 °C 10 km+ 1,200 ft 280° 280° 10 kt METAR EYVI 120250Z 28010KT 250V310 9999 OVC012 10/08 Q1024 NOSIG
05:20
M
10 °C 10 km+ 1,300 ft 280° 280° 11 kt METAR EYVI 120220Z 28011KT 250V310 9999 OVC013 10/07 Q1024 NOSIG
04:50
M
11 °C 10 km+ 1,500 ft 280° 280° 12 kt METAR EYVI 120150Z 28012KT 9999 BKN015 11/07 Q1024 NOSIG
04:20
M
11 °C 10 km+ 1,900 ft 280° 280° 13 kt METAR EYVI 120120Z 28013KT 9999 OVC019 11/06 Q1024 NOSIG
03:50
M
11 °C 10 km+ 2,400 ft 270° 270° 11 kt METAR EYVI 120050Z 27011KT 240V310 9999 OVC024 11/04 Q1024 NOSIG
03:20
M
10 °C 10 km+ 3,000 ft 240° 240° 7 kt METAR EYVI 120020Z 24007KT 9999 OVC030 10/03 Q1024 NOSIG
02:50
V
10 °C 10 km+ 3,800 ft 240° 240° 7 kt METAR EYVI 112350Z 24007KT 9999 OVC038 10/03 Q1025 NOSIG
02:20
V
10 °C 10 km+ 4,100 ft 230° 230° 6 kt METAR EYVI 112320Z 23006KT 9999 BKN041 10/03 Q1025 NOSIG
01:50
V
9 °C 10 km+ 3,900 ft 220° 220° 8 kt METAR EYVI 112250Z 22008KT 9999 BKN039 09/03 Q1025 NOSIG
01:20
V
10 °C 10 km+ 4,100 ft 220° 220° 8 kt METAR EYVI 112220Z 22008KT 9999 BKN041 10/03 Q1025 NOSIG
00:50
V
11 °C 10 km+ - 230° 230° 11 kt METAR EYVI 112150Z 23011KT CAVOK 11/02 Q1025 NOSIG
00:20
V
10 °C 10 km+ - 220° 220° 11 kt METAR EYVI 112120Z 22011KT CAVOK 10/02 Q1025 NOSIG

April 11, 2024

Time Code Weather Temp. Visibility Ceiling Wind METAR/SPECI
23:50
V
10 °C 10 km+ - 220° 220° 11 kt METAR EYVI 112050Z 22011KT CAVOK 10/02 Q1025 NOSIG
23:20
V
11 °C 10 km+ - 220° 220° 10 kt METAR EYVI 112020Z 22010KT CAVOK 11/02 Q1025 NOSIG
22:50
V
11 °C 10 km+ - 220° 220° 9 kt METAR EYVI 111950Z 22009KT CAVOK 11/02 Q1026 NOSIG
22:20
V
11 °C 10 km+ - 230° 230° 9 kt METAR EYVI 111920Z 23009KT CAVOK 11/02 Q1026 NOSIG
21:50
V
10 °C 10 km+ - 220° 220° 8 kt METAR EYVI 111850Z 22008KT CAVOK 10/02 Q1026 NOSIG
21:20
V
10 °C 10 km+ - 230° 230° 6 kt METAR EYVI 111820Z 23006KT CAVOK 10/01 Q1026 NOSIG
20:50
V
11 °C 10 km+ - 240° 240° 6 kt METAR EYVI 111750Z 24006KT CAVOK 11/01 Q1026 NOSIG
20:20
V
12 °C 10 km+ - 250° 250° 7 kt METAR EYVI 111720Z 25007KT CAVOK 12/01 Q1026 NOSIG
19:50
V
12 °C 10 km+ - 260° 260° 7 kt METAR EYVI 111650Z 26007KT CAVOK 12/01 Q1027 NOSIG
19:20
V
13 °C 10 km+ - 280° 280° 8 kt METAR EYVI 111620Z 28008KT 250V310 CAVOK 13/01 Q1027 NOSIG
18:50
V
14 °C 10 km+ - 260° 260° 9 kt METAR EYVI 111550Z 26009KT CAVOK 14/00 Q1027 NOSIG
18:20
V
13 °C 10 km+ - 290° 290° 12 kt METAR EYVI 111520Z 29012KT CAVOK 13/M01 Q1027 NOSIG
17:50
V
14 °C 10 km+ - 290° 290° 12 kt METAR EYVI 111450Z 29012KT 260V320 CAVOK 14/M01 Q1027 NOSIG
17:20
V
14 °C 10 km+ - 280° 280° 10 kt METAR EYVI 111420Z 28010KT 240V310 CAVOK 14/M01 Q1028 NOSIG
16:50
V
14 °C 10 km+ - 260° 260° 12 kt METAR EYVI 111350Z 26012KT CAVOK 14/M01 Q1028 NOSIG
16:20
V
14 °C 10 km+ - 240° 240° 10 kt METAR EYVI 111320Z 24010KT CAVOK 14/M00 Q1028 NOSIG
15:50
V
14 °C 10 km+ - 280° 280° 11 kt METAR EYVI 111250Z 28011KT 230V310 CAVOK 14/M01 Q1028 NOSIG
15:20
V
14 °C 10 km+ - 250° 250° 13 kt METAR EYVI 111220Z 25013KT CAVOK 14/M00 Q1028 NOSIG
14:50
V
14 °C 10 km+ - 260° 260° 10 kt METAR EYVI 111150Z 26010KT 220V300 CAVOK 14/M01 Q1028 NOSIG
14:20
V
14 °C 10 km+ - 230° 230° 10 kt METAR EYVI 111120Z 23010KT 200V270 CAVOK 14/M01 Q1029 NOSIG
13:50
V
13 °C 10 km+ - 260° 260° 11 kt METAR EYVI 111050Z 26011KT 230V290 CAVOK 13/M01 Q1029 NOSIG
13:20
V
12 °C 10 km+ - 300° 300° 9 kt METAR EYVI 111020Z 30009KT 260V340 CAVOK 12/M02 Q1029 NOSIG
12:50
V
12 °C 10 km+ - 270° 270° 9 kt METAR EYVI 110950Z 27009KT 220V330 CAVOK 12/M01 Q1029 NOSIG
12:20
V
12 °C 10 km+ - 270° 270° 8 kt METAR EYVI 110920Z 27008KT 230V340 CAVOK 12/M02 Q1029 NOSIG
11:50
V
11 °C 10 km+ - 300° 300° 9 kt METAR EYVI 110850Z 30009KT 250V350 CAVOK 11/M01 Q1029 NOSIG
11:20
V
10 °C 10 km+ - 300° 300° 8 kt METAR EYVI 110820Z 30008KT 250V340 CAVOK 10/00 Q1029 NOSIG
10:50
V
10 °C 10 km+ - 290° 290° 9 kt METAR EYVI 110750Z 29009KT 260V330 CAVOK 10/01 Q1029 NOSIG
10:20
V
9 °C 10 km+ - 300° 300° 9 kt METAR EYVI 110720Z 30009KT 250V320 CAVOK 09/01 Q1029 NOSIG
09:50
V
8 °C 10 km+ - 300° 300° 9 kt METAR EYVI 110650Z 30009KT 270V330 9999 FEW021 08/02 Q1029 NOSIG
09:20
V
7 °C 10 km+ - 280° 280° 8 kt METAR EYVI 110620Z 28008KT 250V310 CAVOK 07/02 Q1028 NOSIG
08:50
V
7 °C 10 km+ - 290° 290° 7 kt METAR EYVI 110550Z 29007KT CAVOK 07/03 Q1028 NOSIG
Report a change